Time;durP1;ratioP1;P1;durP2;ratioP2;P2;SDS_P1;SDS_P2;PMS_P1;PMS_P2;Temp;Humidity;BMP_temperature;BMP_pressure;BME280_temperature;BME280_humidity;BME280_pressure;Samples;Min_cycle;Max_cycle;Signal;HPM_P1;HPM_P2
2023/03/15 00:03:02;;;;;;;9.82;2.47;;;4.10;75.20;;;;;;9176280;19;20011;-64
2023/03/15 00:06:07;;;;;;;10.50;2.40;;;4.10;74.80;;;;;;9179600;19;20033;-65
2023/03/15 00:09:13;;;;;;;7.55;2.47;;;4.10;74.90;;;;;;9177071;19;20475;-65
2023/03/15 00:12:21;;;;;;;;;;;4.10;75.00;;;;;;9178468;19;20022;-65
2023/03/15 00:15:28;;;;;;;4.60;2.50;;;4.10;75.00;;;;;;9178804;19;19925;-65
2023/03/15 00:18:32;;;;;;;3.75;2.67;;;4.10;74.90;;;;;;9179052;19;20041;-65
2023/03/15 00:21:39;;;;;;;8.75;2.30;;;4.10;75.00;;;;;;9177306;19;20022;-65
2023/03/15 00:24:43;;;;;;;10.43;2.40;;;4.10;75.10;;;;;;9179425;19;20340;-65
2023/03/15 00:27:51;;;;;;;17.60;2.90;;;4.10;75.20;;;;;;9176941;19;20010;-65
2023/03/15 00:31:04;;;;;;;6.80;2.28;;;4.10;75.30;;;;;;9178431;19;20506;-65
2023/03/15 00:34:12;;;;;;;4.90;2.00;;;4.10;75.40;;;;;;9178656;19;20010;-65
2023/03/15 00:37:18;;;;;;;4.95;2.20;;;4.10;75.90;;;;;;9178118;19;20519;-64
2023/03/15 00:40:25;;;;;;;5.95;2.20;;;4.10;75.40;;;;;;9174352;19;20021;-65
2023/03/15 00:43:30;;;;;;;4.25;1.80;;;4.10;75.40;;;;;;9176424;19;20890;-65
2023/03/15 00:46:36;;;;;;;10.57;2.30;;;4.10;75.40;;;;;;9177627;19;20553;-65
2023/03/15 00:49:41;;;;;;;5.60;2.25;;;4.10;75.50;;;;;;9177863;19;20018;-65
2023/03/15 00:52:47;;;;;;;4.97;2.25;;;4.10;75.60;;;;;;9177867;19;20021;-64
2023/03/15 00:55:51;;;;;;;4.32;2.25;;;4.10;75.70;;;;;;9178135;19;20022;-65
2023/03/15 00:59:01;;;;;;;5.35;1.95;;;4.10;75.60;;;;;;9178179;19;20478;-64
2023/03/15 01:02:07;;;;;;;4.38;2.47;;;4.10;75.80;;;;;;9173700;19;20030;-64
2023/03/15 01:05:14;;;;;;;4.97;2.65;;;4.10;75.80;;;;;;9177193;19;20539;-64
2023/03/15 01:08:18;;;;;;;6.57;2.47;;;4.10;75.80;;;;;;9173776;19;20355;-64
2023/03/15 01:11:27;;;;;;;6.38;2.75;;;4.10;75.90;;;;;;9176380;19;20014;-64
2023/03/15 01:14:36;;;;;;;5.03;2.70;;;4.10;75.90;;;;;;9169940;19;20543;-64
2023/03/15 01:17:42;;;;;;;4.30;2.75;;;4.10;76.00;;;;;;9174786;19;20011;-64
2023/03/15 01:20:47;;;;;;;4.85;2.75;;;4.10;76.00;;;;;;9174670;19;20362;-64
2023/03/15 01:23:55;;;;;;;5.50;2.65;;;4.10;76.00;;;;;;9176900;19;20010;-65
2023/03/15 01:26:58;;;;;;;9.57;3.15;;;4.10;76.10;;;;;;9176529;19;20035;-65
2023/03/15 01:30:07;;;;;;;4.25;2.55;;;4.10;76.20;;;;;;9176307;19;20018;-64
2023/03/15 01:33:12;;;;;;;7.28;2.78;;;4.10;76.20;;;;;;9174731;19;20029;-64
2023/03/15 01:36:18;;;;;;;10.13;2.88;;;4.10;76.20;;;;;;9174521;19;20040;-64
2023/03/15 01:39:22;;;;;;;9.07;3.05;;;4.10;76.20;;;;;;9173808;19;20011;-64
2023/03/15 01:42:28;;;;;;;4.20;2.40;;;4.10;76.30;;;;;;9173202;19;20539;-65
2023/03/15 01:46:03;;;;;;;4.88;2.72;;;4.10;76.30;;;;;;9174668;19;20030;-64
2023/03/15 01:49:17;;;;;;;3.55;2.67;;;4.10;76.40;;;;;;9173430;19;20010;-64
2023/03/15 01:52:25;;;;;;;5.70;2.60;;;4.10;76.30;;;;;;9177261;19;20492;-64
2023/03/15 01:55:37;;;;;;;6.38;2.67;;;4.10;76.40;;;;;;9181910;19;20479;-64
2023/03/15 01:58:45;;;;;;;5.82;3.05;;;4.10;76.40;;;;;;9182119;19;20019;-64
2023/03/15 02:01:54;;;;;;;9.02;3.30;;;4.10;76.40;;;;;;9180690;19;20014;-64
2023/03/15 02:05:03;;;;;;;6.97;3.58;;;4.10;76.50;;;;;;9183336;19;20015;-64
2023/03/15 02:08:10;;;;;;;5.65;2.67;;;4.10;76.50;;;;;;9180799;19;20503;-64
2023/03/15 02:11:18;;;;;;;7.88;3.03;;;4.10;76.50;;;;;;9181154;19;20023;-64
2023/03/15 02:14:25;;;;;;;7.25;3.10;;;4.10;76.60;;;;;;9175736;19;20021;-64
2023/03/15 02:17:36;;;;;;;8.73;3.55;;;4.10;76.60;;;;;;9181310;19;20015;-65
2023/03/15 02:20:51;;;;;;;7.32;3.72;;;4.20;76.60;;;;;;9180491;19;20378;-65
2023/03/15 02:24:02;;;;;;;5.82;3.35;;;4.10;77.30;;;;;;9182531;19;20022;-65
2023/03/15 02:27:08;;;;;;;8.65;3.45;;;4.10;76.60;;;;;;9182511;19;20468;-65
2023/03/15 02:30:15;;;;;;;7.57;3.70;;;4.10;76.70;;;;;;9181721;19;20022;-64
2023/03/15 02:33:26;;;;;;;5.57;3.10;;;4.10;76.70;;;;;;9179846;19;20014;-64
2023/03/15 02:36:31;;;;;;;5.50;3.67;;;4.10;76.80;;;;;;9181691;19;20364;-64
2023/03/15 02:39:37;;;;;;;10.77;3.88;;;4.10;76.80;;;;;;9181024;19;20479;-64
2023/03/15 02:42:42;;;;;;;;;;;4.20;76.90;;;;;;9179635;19;20468;-63
2023/03/15 02:45:51;;;;;;;5.22;3.08;;;4.20;76.90;;;;;;9181372;19;20280;-64
2023/03/15 02:48:55;;;;;;;4.85;3.22;;;4.10;76.70;;;;;;9182518;19;20014;-63
2023/03/15 02:52:01;;;;;;;7.88;2.80;;;4.10;76.80;;;;;;9181145;19;20475;-63
2023/03/15 02:55:06;;;;;;;7.13;3.03;;;4.10;76.80;;;;;;9180648;19;20018;-63
2023/03/15 02:58:12;;;;;;;5.13;3.13;;;4.10;76.90;;;;;;9180238;19;20022;-64
2023/03/15 03:01:18;;;;;;;;;;;4.10;77.00;;;;;;9182452;19;20042;-63
2023/03/15 03:04:25;;;;;;;8.95;3.33;;;4.10;77.00;;;;;;9178965;19;19929;-64
2023/03/15 03:07:29;;;;;;;9.35;3.42;;;4.10;76.80;;;;;;9179087;19;20014;-64
2023/03/15 03:10:41;;;;;;;7.78;2.42;;;4.10;76.90;;;;;;9179865;19;20052;-64
2023/03/15 03:13:45;;;;;;;6.82;3.10;;;4.10;76.90;;;;;;9175860;19;20367;-63
2023/03/15 03:16:53;;;;;;;9.65;3.45;;;4.10;77.10;;;;;;9181279;19;20011;-63
2023/03/15 03:19:58;;;;;;;9.63;4.05;;;4.10;77.00;;;;;;9181140;19;20365;-63
2023/03/15 03:23:12;;;;;;;7.53;3.90;;;4.00;77.00;;;;;;9176502;19;20010;-64
2023/03/15 03:26:19;;;;;;;6.85;3.63;;;4.00;77.00;;;;;;9179740;19;20021;-64
2023/03/15 03:29:28;;;;;;;13.50;4.00;;;4.00;77.10;;;;;;9177542;19;20007;-64
2023/03/15 03:32:36;;;;;;;9.25;4.30;;;4.00;77.10;;;;;;9178971;19;20051;-64
2023/03/15 03:35:43;;;;;;;5.10;3.60;;;4.00;77.20;;;;;;9178922;19;20018;-64
2023/03/15 03:38:48;;;;;;;6.68;3.83;;;4.00;77.20;;;;;;9179086;19;20019;-64
2023/03/15 03:41:54;;;;;;;8.63;4.00;;;4.00;77.20;;;;;;9177491;19;20010;-64
2023/03/15 03:44:58;;;;;;;6.22;3.97;;;4.00;77.30;;;;;;9180474;19;20026;-64
2023/03/15 03:48:12;;;;;;;6.32;4.28;;;3.90;77.20;;;;;;9178886;19;20491;-64
2023/03/15 03:51:16;;;;;;;10.63;3.35;;;3.90;77.20;;;;;;9180101;19;20031;-64
2023/03/15 03:54:24;;;;;;;8.63;4.40;;;3.90;77.20;;;;;;9179080;19;20015;-64
2023/03/15 03:57:28;;;;;;;11.38;4.70;;;3.90;77.30;;;;;;9177798;19;20085;-64
2023/03/15 04:00:34;;;;;;;9.68;4.30;;;3.90;77.30;;;;;;9177753;19;20007;-64
2023/03/15 04:03:41;;;;;;;9.48;4.45;;;3.90;77.30;;;;;;9174290;19;20484;-64
2023/03/15 04:06:53;;;;;;;8.10;4.28;;;3.80;77.30;;;;;;9178329;19;20041;-64
2023/03/15 04:10:03;;;;;;;12.27;5.40;;;3.80;77.30;;;;;;9174349;19;20014;-64
2023/03/15 04:13:10;;;;;;;12.25;5.10;;;3.80;77.40;;;;;;9171462;19;20372;-64
2023/03/15 04:16:14;;;;;;;11.18;4.45;;;3.80;77.40;;;;;;9175518;19;20082;-64
2023/03/15 04:19:34;;;;;;;8.20;4.35;;;3.70;77.30;;;;;;9176564;19;20014;-64
2023/03/15 04:22:39;;;;;;;14.00;4.90;;;3.70;77.40;;;;;;9174757;19;20041;-64
2023/03/15 04:25:58;;;;;;;9.77;4.10;;;3.70;77.40;;;;;;9174227;19;20495;-64
2023/03/15 04:29:23;;;;;;;7.60;4.53;;;3.70;77.50;;;;;;9176488;19;20029;-64
2023/03/15 04:32:57;;;;;;;10.85;4.72;;;3.60;77.40;;;;;;9176914;19;20013;-65
2023/03/15 04:36:19;;;;;;;9.38;4.43;;;3.60;77.50;;;;;;9178515;19;20642;-64
2023/03/15 04:39:44;;;;;;;9.13;3.92;;;3.60;77.50;;;;;;9178262;19;20014;-64
2023/03/15 04:43:00;;;;;;;10.32;4.97;;;3.60;78.20;;;;;;9174589;19;20021;-64
2023/03/15 04:46:19;;;;;;;7.07;4.07;;;3.50;77.50;;;;;;9177746;19;20011;-64
2023/03/15 04:49:41;;;;;;;10.07;4.40;;;3.50;77.50;;;;;;9175710;19;20622;-64
2023/03/15 04:53:00;;;;;;;7.60;4.95;;;3.50;77.50;;;;;;9176328;19;20372;-64
2023/03/15 04:56:43;;;;;;;9.00;4.28;;;3.50;77.60;;;;;;9177194;19;20040;-64
2023/03/15 05:00:10;;;;;;;11.82;4.65;;;3.50;77.50;;;;;;9176768;19;20026;-64
2023/03/15 05:03:20;;;;;;;6.07;3.53;;;3.40;77.50;;;;;;9175346;19;20060;-65
2023/03/15 05:06:30;;;;;;;6.95;3.92;;;3.40;77.50;;;;;;9177397;19;20010;-64
2023/03/15 05:10:05;;;;;;;10.40;4.32;;;3.40;77.60;;;;;;9170996;19;20017;-64
2023/03/15 05:13:32;;;;;;;10.48;4.80;;;3.30;77.60;;;;;;9171655;19;20372;-65
2023/03/15 05:17:03;;;;;;;8.43;4.22;;;3.30;77.60;;;;;;9175247;19;20090;-65
2023/03/15 05:20:32;;;;;;;7.22;4.45;;;3.30;77.70;;;;;;9173681;19;20018;-64
2023/03/15 05:24:08;;;;;;;7.47;4.43;;;3.30;77.60;;;;;;9171579;19;20011;-64
2023/03/15 05:27:37;;;;;;;7.78;4.97;;;3.20;77.60;;;;;;9180341;19;20021;-62
2023/03/15 05:30:57;;;;;;;12.55;4.85;;;3.20;77.60;;;;;;9182536;19;20679;-63
2023/03/15 05:34:27;;;;;;;7.50;4.45;;;3.20;78.30;;;;;;9184585;19;20021;-62
2023/03/15 05:37:49;;;;;;;9.57;4.78;;;3.10;77.70;;;;;;9183319;19;20018;-61
2023/03/15 05:41:22;;;;;;;9.30;4.72;;;3.10;77.70;;;;;;9184086;19;20049;-61
2023/03/15 05:44:47;;;;;;;8.40;4.82;;;3.10;77.70;;;;;;9184779;19;20018;-61
2023/03/15 05:48:04;;;;;;;8.27;4.38;;;3.00;77.70;;;;;;9182795;19;20007;-62
2023/03/15 05:51:22;;;;;;;7.90;4.68;;;3.00;78.40;;;;;;9178391;19;20778;-61
2023/03/15 05:54:48;;;;;;;9.93;4.60;;;2.90;77.70;;;;;;9176315;19;20025;-61
2023/03/15 05:58:20;;;;;;;8.10;4.47;;;2.90;77.70;;;;;;9178417;19;20018;-61
2023/03/15 06:01:59;;;;;;;10.10;4.95;;;2.90;77.70;;;;;;9176925;19;20372;-61
2023/03/15 06:05:11;;;;;;;8.68;4.38;;;2.90;77.70;;;;;;9180134;19;20014;-61
2023/03/15 06:08:17;;;;;;;10.55;5.05;;;2.90;77.80;;;;;;9182290;19;20018;-61
2023/03/15 06:11:24;;;;;;;9.57;5.38;;;2.90;77.80;;;;;;9181104;19;20045;-61
2023/03/15 06:14:31;;;;;;;9.77;5.30;;;2.80;77.80;;;;;;9177133;19;20015;-61
2023/03/15 06:17:42;;;;;;;14.98;5.07;;;2.80;78.10;;;;;;9180500;19;20022;-61
2023/03/15 06:20:48;;;;;;;10.02;5.40;;;2.80;77.90;;;;;;9181465;19;20018;-61
2023/03/15 06:23:54;;;;;;;9.63;5.30;;;2.80;78.00;;;;;;9179324;19;20018;-61
2023/03/15 06:27:00;;;;;;;11.10;5.53;;;2.70;77.90;;;;;;9181305;19;20011;-61
2023/03/15 06:30:05;;;;;;;12.95;5.45;;;2.80;78.00;;;;;;9181171;19;20090;-61
2023/03/15 06:33:13;;;;;;;14.65;5.88;;;2.70;78.00;;;;;;9181264;19;20017;-61
2023/03/15 06:36:17;;;;;;;11.48;6.15;;;2.70;78.70;;;;;;9180971;19;20019;-60
2023/03/15 06:39:24;;;;;;;15.25;5.78;;;2.70;78.10;;;;;;9179817;19;20022;-61
2023/03/15 06:42:28;;;;;;;10.73;6.10;;;2.70;78.10;;;;;;9179648;19;20082;-61
2023/03/15 06:45:34;;;;;;;10.27;6.18;;;2.70;78.20;;;;;;9180500;19;20491;-61
2023/03/15 06:48:42;;;;;;;15.65;5.50;;;2.70;78.30;;;;;;9180620;19;20006;-61
2023/03/15 06:51:50;;;;;;;13.98;5.45;;;2.70;78.90;;;;;;9180117;19;20071;-61
2023/03/15 06:54:54;;;;;;;10.80;4.80;;;2.80;78.40;;;;;;9180436;19;20480;-61
2023/03/15 06:58:00;;;;;;;18.83;5.82;;;2.80;78.40;;;;;;9180256;19;20019;-61
2023/03/15 07:01:04;;;;;;;9.10;4.30;;;2.80;78.50;;;;;;9181219;19;20029;-60
2023/03/15 07:04:13;;;;;;;8.48;4.38;;;2.80;78.50;;;;;;9177280;19;20049;-60
2023/03/15 07:07:17;;;;;;;12.85;3.50;;;2.90;78.70;;;;;;9181270;19;20383;-61
2023/03/15 07:10:23;;;;;;;18.80;4.63;;;2.90;78.70;;;;;;9181385;19;20014;-61
2023/03/15 07:13:27;;;;;;;6.57;2.47;;;3.00;79.30;;;;;;9175289;19;20054;-61
2023/03/15 07:16:33;;;;;;;8.18;3.30;;;3.00;78.70;;;;;;9180898;19;20022;-60
2023/03/15 07:19:38;;;;;;;;;;;3.10;78.90;;;;;;9182893;19;20015;-61
2023/03/15 07:22:59;;;;;;;10.90;3.90;;;3.10;78.90;;;;;;9179461;19;19915;-60
2023/03/15 07:26:02;;;;;;;;;;;3.20;78.80;;;;;;9180311;19;20037;-61
2023/03/15 07:29:09;;;;;;;16.13;3.10;;;3.30;78.80;;;;;;9181013;19;19958;-61
2023/03/15 07:32:13;;;;;;;14.18;3.10;;;3.40;78.80;;;;;;9180707;19;20018;-61
2023/03/15 07:35:21;;;;;;;8.85;2.67;;;3.50;78.90;;;;;;9180677;19;20021;-62
2023/03/15 07:38:27;;;;;;;7.30;2.08;;;3.50;79.00;;;;;;9180110;19;20487;-62
2023/03/15 07:41:34;;;;;;;7.93;2.45;;;3.60;79.10;;;;;;9178333;19;20014;-62
2023/03/15 07:44:49;;;;;;;9.05;2.53;;;3.70;79.10;;;;;;9179822;19;20017;-62
2023/03/15 07:47:55;;;;;;;5.20;2.17;;;3.80;79.20;;;;;;9179963;19;20352;-62
2023/03/15 07:51:01;;;;;;;9.55;1.95;;;3.90;79.30;;;;;;9177727;19;20017;-62
2023/03/15 07:54:08;;;;;;;8.68;1.65;;;4.00;79.30;;;;;;9178589;19;20018;-62
2023/03/15 07:57:12;;;;;;;6.68;1.80;;;4.20;79.40;;;;;;9180850;19;20049;-62
2023/03/15 08:00:20;;;;;;;8.77;2.22;;;4.30;79.40;;;;;;9173611;19;20483;-62
2023/03/15 08:03:25;;;;;;;6.38;1.83;;;4.40;79.40;;;;;;9170414;19;20047;-63
2023/03/15 08:06:33;;;;;;;6.97;1.65;;;4.50;79.30;;;;;;9171307;19;20053;-62
2023/03/15 08:09:38;;;;;;;13.98;1.80;;;4.60;79.40;;;;;;9167481;19;20583;-62
2023/03/15 08:12:45;;;;;;;10.60;2.10;;;4.80;79.50;;;;;;9167127;19;20813;-63
2023/03/15 08:15:49;;;;;;;8.13;1.70;;;4.90;79.50;;;;;;9171890;19;20014;-63
2023/03/15 08:18:55;;;;;;;12.88;1.70;;;5.10;79.50;;;;;;9172098;19;20025;-63
2023/03/15 08:22:01;;;;;;;2.35;1.20;;;5.30;79.60;;;;;;9167331;19;20090;-64
2023/03/15 08:25:08;;;;;;;4.82;1.58;;;5.50;79.60;;;;;;9162897;19;20014;-64
2023/03/15 08:28:12;;;;;;;5.82;1.30;;;5.70;79.50;;;;;;9164619;19;20486;-63
2023/03/15 08:31:18;;;;;;;7.13;1.20;;;5.90;79.40;;;;;;9159978;19;20014;-69
2023/03/15 08:34:23;;;;;;;7.10;0.90;;;6.10;79.40;;;;;;9160891;19;20015;-64
2023/03/15 08:37:31;;;;;;;9.57;1.50;;;6.20;79.30;;;;;;9163583;19;20018;-63
2023/03/15 08:40:35;;;;;;;8.80;1.60;;;6.40;79.20;;;;;;9161023;19;20480;-64
2023/03/15 08:43:41;;;;;;;9.50;1.48;;;6.70;79.20;;;;;;9160109;19;20015;-62
2023/03/15 08:46:45;;;;;;;9.73;1.85;;;6.80;79.10;;;;;;9163010;19;20494;-62
2023/03/15 08:49:51;;;;;;;3.90;1.08;;;7.10;79.20;;;;;;9161524;19;20011;-62
2023/03/15 08:52:58;;;;;;;6.43;1.05;;;7.30;79.00;;;;;;9162290;19;20486;-62
2023/03/15 08:56:04;;;;;;;6.65;1.23;;;7.50;78.80;;;;;;9163531;19;20007;-62
2023/03/15 08:59:08;;;;;;;5.10;1.35;;;7.70;78.60;;;;;;9160604;19;20082;-63
2023/03/15 09:02:16;;;;;;;10.90;1.27;;;7.90;78.40;;;;;;9159944;19;20016;-63
2023/03/15 09:05:22;;;;;;;6.22;1.05;;;8.10;78.30;;;;;;9161470;19;20035;-63
2023/03/15 09:08:32;;;;;;;7.80;1.35;;;8.20;78.10;;;;;;9162342;19;20022;-62
2023/03/15 09:11:36;;;;;;;7.75;1.20;;;8.30;78.00;;;;;;9163556;19;20640;-61
2023/03/15 09:14:42;;;;;;;10.55;1.73;;;8.40;78.00;;;;;;9158342;19;20010;-61
2023/03/15 09:17:46;;;;;;;;;;;8.60;77.90;;;;;;9168857;19;20026;-61
2023/03/15 09:20:52;;;;;;;4.07;1.23;;;8.70;77.80;;;;;;9168808;19;20385;-61
2023/03/15 09:23:57;;;;;;;;;;;8.80;77.80;;;;;;9166776;19;20015;-61
2023/03/15 09:27:03;;;;;;;13.60;1.67;;;8.90;77.70;;;;;;9168801;19;20344;-63
2023/03/15 09:30:08;;;;;;;9.05;1.35;;;9.00;77.60;;;;;;9168837;19;20018;-62
2023/03/15 09:33:15;;;;;;;6.10;1.52;;;9.20;77.50;;;;;;9167599;19;20019;-62
2023/03/15 09:36:19;;;;;;;10.70;1.75;;;9.30;77.40;;;;;;9169016;19;20022;-63
2023/03/15 09:39:27;;;;;;;13.25;2.33;;;9.40;77.30;;;;;;9169265;19;20015;-63
2023/03/15 09:42:43;;;;;;;6.63;1.17;;;9.50;77.20;;;;;;9166974;19;20036;-62
2023/03/15 09:46:07;;;;;;;12.63;1.63;;;9.60;76.90;;;;;;9167376;19;20814;-62
2023/03/15 09:49:15;;;;;;;9.68;1.35;;;9.80;76.60;;;;;;9167733;19;20006;-69
2023/03/15 09:52:31;;;;;;;7.90;1.10;;;9.90;76.60;;;;;;9168670;19;20007;-70
2023/03/15 09:55:37;;;;;;;8.65;1.33;;;10.00;76.30;;;;;;9164074;19;20314;-72
2023/03/15 09:58:44;;;;;;;8.55;1.60;;;10.20;76.30;;;;;;9159901;19;20010;-71
2023/03/15 10:01:49;;;;;;;6.50;1.55;;;10.30;76.20;;;;;;9163396;19;20038;-71
2023/03/15 10:04:59;;;;;;;9.25;2.38;;;10.40;75.90;;;;;;9165289;19;20408;-71
2023/03/15 10:08:03;;;;;;;8.48;1.40;;;10.50;75.60;;;;;;9165223;19;20041;-72
2023/03/15 10:11:16;;;;;;;7.53;1.05;;;10.60;75.40;;;;;;9163122;19;20019;-72
2023/03/15 10:14:32;;;;;;;12.00;1.33;;;10.60;75.00;;;;;;9163904;19;20352;-72
2023/03/15 10:17:49;;;;;;;5.72;1.10;;;10.70;74.80;;;;;;9174136;19;20356;-72
2023/03/15 10:21:01;;;;;;;6.47;1.10;;;10.70;74.60;;;;;;9172975;19;20018;-72
2023/03/15 10:24:10;;;;;;;;;;;10.70;75.10;;;;;;9172789;19;20018;-72
2023/03/15 10:27:22;;;;;;;8.77;1.50;;;10.70;74.70;;;;;;9171025;19;20550;-72
2023/03/15 10:30:32;;;;;;;11.57;1.45;;;10.70;74.60;;;;;;9175898;19;20490;-72
2023/03/15 10:33:38;;;;;;;7.20;1.63;;;10.70;74.70;;;;;;9171592;19;20379;-71
2023/03/15 10:36:53;;;;;;;10.02;2.15;;;10.70;74.40;;;;;;9171012;19;20015;-71
2023/03/15 10:39:59;;;;;;;6.78;1.05;;;10.70;74.20;;;;;;9174162;19;20018;-71
2023/03/15 10:43:19;;;;;;;8.65;1.17;;;10.70;74.10;;;;;;9171048;19;20685;-71
2023/03/15 10:46:25;;;;;;;5.28;1.20;;;10.70;73.90;;;;;;9171706;19;20022;-71
2023/03/15 10:49:36;;;;;;;6.78;1.27;;;10.70;73.90;;;;;;9171668;19;20006;-71
2023/03/15 10:52:43;;;;;;;8.93;1.40;;;10.70;73.70;;;;;;9160715;19;20392;-71
2023/03/15 10:55:50;;;;;;;6.80;1.17;;;10.80;74.20;;;;;;9171090;19;20014;-71
2023/03/15 10:59:00;;;;;;;9.00;1.45;;;10.80;73.60;;;;;;9159022;19;20019;-71
2023/03/15 11:02:24;;;;;;;14.57;1.30;;;10.80;73.30;;;;;;9172418;19;20013;-71
2023/03/15 11:05:32;;;;;;;10.38;1.90;;;10.80;73.20;;;;;;9164160;19;20019;-72
2023/03/15 11:08:40;;;;;;;12.65;1.77;;;10.90;73.10;;;;;;9160100;19;20026;-71
2023/03/15 11:11:59;;;;;;;11.70;1.27;;;10.90;73.10;;;;;;9165784;19;20038;-71
2023/03/15 11:15:13;;;;;;;5.25;1.02;;;10.90;72.80;;;;;;9162622;19;20011;-71
2023/03/15 11:18:26;;;;;;;7.07;1.38;;;11.00;72.80;;;;;;9166272;19;20022;-71
2023/03/15 11:21:35;;;;;;;6.05;1.20;;;11.10;72.80;;;;;;9162433;19;20030;-71
2023/03/15 11:24:41;;;;;;;6.30;1.65;;;11.10;72.80;;;;;;9161824;19;20022;-71
2023/03/15 11:27:52;;;;;;;2.38;0.95;;;11.20;72.60;;;;;;9163761;19;20006;-71
2023/03/15 11:31:00;;;;;;;10.88;1.38;;;11.30;72.60;;;;;;9163921;19;20014;-71
2023/03/15 11:34:13;;;;;;;8.60;1.77;;;11.40;72.30;;;;;;9164239;19;20074;-72
2023/03/15 11:37:21;;;;;;;6.65;0.90;;;11.50;72.10;;;;;;9163374;19;20062;-71
2023/03/15 11:40:34;;;;;;;6.80;1.25;;;11.50;71.90;;;;;;9163193;19;20044;-71
2023/03/15 11:43:48;;;;;;;8.35;1.02;;;11.50;71.70;;;;;;9161071;19;20023;-72
2023/03/15 11:47:00;;;;;;;4.43;1.13;;;11.60;71.70;;;;;;9162040;19;20525;-71
2023/03/15 11:50:06;;;;;;;4.68;1.20;;;11.60;71.60;;;;;;9167030;19;20476;-72
2023/03/15 11:53:14;;;;;;;5.88;1.20;;;11.70;71.60;;;;;;9161389;19;20376;-71
2023/03/15 11:56:24;;;;;;;8.00;1.45;;;11.70;71.40;;;;;;9169490;19;20011;-71
2023/03/15 11:59:31;;;;;;;5.43;0.95;;;11.80;71.10;;;;;;9157126;19;20026;-72
2023/03/15 12:02:50;;;;;;;4.13;1.10;;;11.80;71.00;;;;;;9165015;19;20491;-72
2023/03/15 12:06:04;;;;;;;5.80;1.10;;;11.80;70.50;;;;;;9163536;19;20735;-71
2023/03/15 12:09:41;;;;;;;3.70;1.00;;;11.90;70.60;;;;;;9162036;19;20018;-73
2023/03/15 12:12:57;;;;;;;4.63;1.63;;;11.90;70.20;;;;;;9163230;19;20014;-73
2023/03/15 12:16:01;;;;;;;4.60;1.20;;;12.00;70.70;;;;;;9164668;19;20017;-72
2023/03/15 12:19:16;;;;;;;5.60;1.10;;;12.00;70.50;;;;;;9164139;19;20018;-72
2023/03/15 12:22:21;;;;;;;3.80;0.75;;;12.00;70.00;;;;;;9170740;19;20018;-72
2023/03/15 12:25:36;;;;;;;7.47;0.98;;;12.00;70.20;;;;;;9167347;19;20081;-72
2023/03/15 12:29:08;;;;;;;4.30;1.10;;;12.10;69.90;;;;;;9171945;19;20036;-73
2023/03/15 12:32:17;;;;;;;6.80;1.45;;;12.20;69.60;;;;;;9171618;19;20015;-72
2023/03/15 12:35:28;;;;;;;4.53;0.70;;;12.20;69.70;;;;;;9167293;19;20490;-72
2023/03/15 12:38:40;;;;;;;7.45;1.10;;;12.20;69.50;;;;;;9170038;19;20021;-73
2023/03/15 12:41:47;;;;;;;2.60;0.68;;;12.30;69.50;;;;;;9166423;19;20018;-72
2023/03/15 12:44:53;;;;;;;6.28;1.10;;;12.40;69.40;;;;;;9166354;19;20113;-72
2023/03/15 12:48:20;;;;;;;6.45;0.60;;;12.40;69.20;;;;;;9170394;19;20014;-72
2023/03/15 12:51:55;;;;;;;2.05;0.68;;;12.40;68.50;;;;;;9170593;19;20479;-72
2023/03/15 12:55:11;;;;;;;6.38;1.00;;;12.40;68.40;;;;;;9167878;19;20487;-72
2023/03/15 12:58:20;;;;;;;4.05;1.00;;;12.40;68.50;;;;;;9165915;19;20015;-72
2023/03/15 13:01:25;;;;;;;5.25;0.93;;;12.40;68.50;;;;;;9170355;19;20055;-71
2023/03/15 13:04:32;;;;;;;4.97;1.38;;;12.30;68.30;;;;;;9168393;19;20575;-73
2023/03/15 13:07:50;;;;;;;2.92;1.05;;;12.20;68.20;;;;;;9154677;19;20022;-72
2023/03/15 13:11:09;;;;;;;4.72;1.00;;;12.20;67.90;;;;;;9152217;19;20010;-71
2023/03/15 13:14:34;;;;;;;4.68;1.02;;;12.10;68.00;;;;;;9163942;19;20018;-70
2023/03/15 13:17:49;;;;;;;3.72;0.93;;;12.00;67.70;;;;;;9169483;19;20083;-70
2023/03/15 13:21:06;;;;;;;3.80;0.70;;;11.90;67.90;;;;;;9161357;19;20023;-73
2023/03/15 13:24:23;;;;;;;2.30;0.80;;;11.80;67.70;;;;;;9165096;19;20022;-73
2023/03/15 13:27:40;;;;;;;3.60;0.88;;;11.70;67.70;;;;;;9169367;19;20015;-73
2023/03/15 13:30:51;;;;;;;5.78;1.33;;;11.50;67.60;;;;;;9169449;19;20018;-72
2023/03/15 13:33:57;;;;;;;4.18;0.95;;;11.50;67.90;;;;;;9168288;19;20010;-72
2023/03/15 13:37:03;;;;;;;3.75;1.00;;;11.40;67.80;;;;;;9168612;19;20015;-73
2023/03/15 13:40:15;;;;;;;6.28;1.45;;;11.30;67.80;;;;;;9168133;19;20378;-73
2023/03/15 13:43:21;;;;;;;3.93;1.50;;;11.30;67.50;;;;;;9167640;19;20018;-73
2023/03/15 13:46:27;;;;;;;3.97;1.02;;;11.20;67.60;;;;;;9166755;19;20453;-73
2023/03/15 13:49:35;;;;;;;8.15;2.13;;;11.20;67.40;;;;;;9174734;19;20018;-73
2023/03/15 13:52:39;;;;;;;3.88;1.10;;;11.10;67.40;;;;;;9175750;19;20082;-72
2023/03/15 13:55:53;;;;;;;7.72;0.82;;;11.00;67.30;;;;;;9172389;19;20589;-73
2023/03/15 13:58:59;;;;;;;7.47;1.50;;;11.00;67.20;;;;;;9169482;19;20596;-72
2023/03/15 14:02:06;;;;;;;4.78;1.05;;;10.90;67.30;;;;;;9172059;19;20299;-62
2023/03/15 14:05:13;;;;;;;5.15;0.63;;;10.90;67.20;;;;;;9163448;19;20129;-62
2023/03/15 14:08:25;;;;;;;4.80;0.93;;;10.80;67.10;;;;;;9167442;19;20011;-62
2023/03/15 14:11:39;;;;;;;3.67;0.70;;;10.80;67.10;;;;;;9176354;19;20555;-62
2023/03/15 14:14:51;;;;;;;6.63;1.30;;;10.80;66.90;;;;;;9176286;19;20025;-63
2023/03/15 14:18:00;;;;;;;9.02;1.20;;;10.80;66.90;;;;;;9176731;19;20451;-62
2023/03/15 14:21:11;;;;;;;4.47;1.27;;;10.80;66.90;;;;;;9174367;19;20018;-63
2023/03/15 14:24:19;;;;;;;6.57;1.10;;;10.80;66.90;;;;;;9170454;19;20014;-63
2023/03/15 14:27:29;;;;;;;7.60;1.42;;;10.80;66.80;;;;;;9168148;19;20498;-63
2023/03/15 14:30:37;;;;;;;7.20;0.82;;;10.80;66.70;;;;;;9168846;19;20010;-63
2023/03/15 14:33:44;;;;;;;6.25;1.02;;;10.80;66.60;;;;;;9165652;19;20010;-63
2023/03/15 14:36:48;;;;;;;4.13;0.93;;;10.90;66.60;;;;;;9167661;19;20610;-63
2023/03/15 14:40:06;;;;;;;4.57;1.50;;;10.90;66.50;;;;;;9162435;19;20018;-63
2023/03/15 14:43:12;;;;;;;2.83;0.73;;;10.80;66.20;;;;;;9172851;19;20360;-63
2023/03/15 14:46:18;;;;;;;5.78;0.70;;;10.90;66.80;;;;;;9174978;19;20017;-63
2023/03/15 14:49:24;;;;;;;;;;;10.90;66.00;;;;;;9175886;19;20455;-63
2023/03/15 14:52:31;;;;;;;5.03;1.00;;;10.90;66.10;;;;;;9173373;19;19919;-64
2023/03/15 14:55:38;;;;;;;5.88;1.00;;;10.90;66.20;;;;;;9171775;19;20063;-63
2023/03/15 14:58:48;;;;;;;5.50;0.93;;;11.00;66.00;;;;;;9168157;19;20018;-63
2023/03/15 15:01:55;;;;;;;5.13;1.20;;;10.90;65.70;;;;;;9172572;19;20014;-63
2023/03/15 15:05:02;;;;;;;3.38;0.88;;;10.90;65.50;;;;;;9171858;19;20348;-63
2023/03/15 15:08:11;;;;;;;1.25;0.70;;;10.90;65.40;;;;;;9171858;19;20058;-62
2023/03/15 15:11:17;;;;;;;6.45;0.90;;;10.80;65.30;;;;;;9174537;19;20025;-63
2023/03/15 15:14:23;;;;;;;2.97;1.08;;;10.80;65.30;;;;;;9173757;19;20014;-63
2023/03/15 15:17:29;;;;;;;3.40;0.82;;;10.80;65.20;;;;;;9174633;19;20023;-63
2023/03/15 15:20:33;;;;;;;4.45;1.40;;;10.70;65.20;;;;;;9172765;19;20451;-62
2023/03/15 15:23:41;;;;;;;5.40;1.02;;;10.70;65.20;;;;;;9172835;19;20380;-63
2023/03/15 15:27:01;;;;;;;4.05;0.90;;;10.70;65.20;;;;;;9173894;19;20022;-63
2023/03/15 15:30:13;;;;;;;3.83;0.80;;;10.60;65.10;;;;;;9173594;19;20023;-63
2023/03/15 15:33:21;;;;;;;3.38;0.80;;;10.60;64.80;;;;;;9173101;19;20014;-62
2023/03/15 15:36:30;;;;;;;1.48;0.63;;;10.50;64.90;;;;;;9173082;19;20030;-62
2023/03/15 15:39:36;;;;;;;6.10;1.08;;;10.50;64.70;;;;;;9172795;19;20356;-61
2023/03/15 15:42:42;;;;;;;3.45;0.90;;;10.50;64.70;;;;;;9172718;19;20019;-61
2023/03/15 15:45:47;;;;;;;5.85;1.10;;;10.40;64.60;;;;;;9169102;19;20025;-61
2023/03/15 15:48:54;;;;;;;3.35;0.90;;;10.40;64.60;;;;;;9172342;19;20015;-61
2023/03/15 15:51:58;;;;;;;2.50;0.88;;;10.40;64.60;;;;;;9170317;19;20018;-61
2023/03/15 15:55:04;;;;;;;1.85;0.82;;;10.30;64.50;;;;;;9171716;19;20510;-62
2023/03/15 15:58:10;;;;;;;2.20;0.98;;;10.30;64.50;;;;;;9167190;19;20013;-61
2023/03/15 16:01:19;;;;;;;13.43;1.38;;;10.30;64.50;;;;;;9172065;19;20025;-61
2023/03/15 16:04:24;;;;;;;2.50;1.00;;;10.20;64.40;;;;;;9170270;19;20101;-61
2023/03/15 16:07:30;;;;;;;1.98;0.95;;;10.20;64.30;;;;;;9170752;19;20931;-61
2023/03/15 16:10:35;;;;;;;3.95;0.88;;;10.10;64.20;;;;;;9169297;19;20021;-61
2023/03/15 16:13:41;;;;;;;2.40;0.98;;;10.10;64.10;;;;;;9171139;19;20014;-61
2023/03/15 16:16:47;;;;;;;3.80;0.80;;;10.00;64.00;;;;;;9167644;19;20483;-61
2023/03/15 16:19:55;;;;;;;2.97;0.68;;;10.00;63.90;;;;;;9160399;19;20022;-61
2023/03/15 16:23:01;;;;;;;1.73;0.88;;;9.90;63.90;;;;;;9161783;19;20014;-61
2023/03/15 16:26:07;;;;;;;5.65;0.70;;;9.80;63.80;;;;;;9160131;19;20006;-61
2023/03/15 16:29:17;;;;;;;2.97;0.63;;;9.80;63.90;;;;;;9159974;19;20390;-61
2023/03/15 16:32:27;;;;;;;5.57;1.23;;;9.70;63.70;;;;;;9158440;19;20505;-61
2023/03/15 16:35:48;;;;;;;2.60;0.63;;;9.60;63.80;;;;;;9161179;19;20587;-61
2023/03/15 16:38:56;;;;;;;3.33;1.20;;;9.60;63.90;;;;;;9163254;19;20018;-61